Butare Airport


Codes: HRYI/BTQ
Name: Butare Airport
City: Butare
Country: Rwanda
Elevation: 5801 ft.

Photos at Butare Airport


   Photos courtesy of SpottingLog. You can add your own sightings and photos by signing up for a free trial today.



No photos found.

Weather at Butare Airport


Time (UTC)DescriptionTempratureWindCloud coverageVisibilityPressureHumidity
21-Feb-2024 03:00Overcast Clouds15°C2 mph, W100%10000m1014hPa94%
21-Feb-2024 06:00Overcast Clouds16°C2 mph, W100%10000m1014hPa91%
21-Feb-2024 09:00Light Rain21°C4 mph, NE99%10000m1013hPa74%
21-Feb-2024 12:00Overcast Clouds25°C4 mph, NE90%10000m1009hPa54%
21-Feb-2024 15:00Light Rain22°C4 mph, E100%10000m1009hPa77%
21-Feb-2024 18:00Light Rain17°C2 mph, SE99%10000m1012hPa88%
21-Feb-2024 21:00Overcast Clouds16°C2 mph, W99%10000m1013hPa93%
22-Feb-2024 00:00Overcast Clouds15°C4 mph, W100%10000m1011hPa94%
22-Feb-2024 03:00Overcast Clouds14°C2 mph, W86%10000m1012hPa93%
22-Feb-2024 06:00Broken Clouds18°C2 mph, N57%10000m1013hPa84%
22-Feb-2024 09:00Light Rain23°C4 mph, NE27%10000m1012hPa61%
22-Feb-2024 12:00Light Rain25°C4 mph, NE48%10000m1008hPa55%
22-Feb-2024 15:00Light Rain22°C4 mph, E59%10000m1008hPa74%
22-Feb-2024 18:00Light Rain17°C2 mph, SW62%10000m1011hPa90%
22-Feb-2024 21:00Overcast Clouds16°C2 mph, W99%10000m1013hPa92%
23-Feb-2024 00:00Overcast Clouds16°C4 mph, W100%10000m1011hPa93%
23-Feb-2024 03:00Overcast Clouds15°C2 mph, W99%10000m1013hPa94%
23-Feb-2024 06:00Light Rain19°C0 mph, NE68%10000m1014hPa85%
23-Feb-2024 09:00Light Rain23°C4 mph, E100%10000m1013hPa60%
23-Feb-2024 12:00Light Rain25°C2 mph, SE98%10000m1010hPa56%
23-Feb-2024 15:00Broken Clouds23°C2 mph, SE70%10000m1008hPa65%
23-Feb-2024 18:00Broken Clouds17°C2 mph, SW62%10000m1012hPa83%
23-Feb-2024 21:00Light Rain15°C2 mph, W74%10000m1014hPa91%
24-Feb-2024 00:00Light Rain15°C2 mph, W64%10000m1013hPa93%
24-Feb-2024 03:00Broken Clouds14°C2 mph, W66%10000m1015hPa94%
24-Feb-2024 06:00Broken Clouds19°C0 mph, E77%10000m1016hPa81%
24-Feb-2024 09:00Light Rain24°C2 mph, E63%10000m1014hPa58%
24-Feb-2024 12:00Light Rain25°C2 mph, SE38%10000m1010hPa55%
24-Feb-2024 15:00Light Rain23°C4 mph, S21%10000m1009hPa67%
24-Feb-2024 18:00Light Rain17°C2 mph, S29%10000m1013hPa91%
24-Feb-2024 21:00Moderate Rain16°C2 mph, SW93%10000m1016hPa95%
25-Feb-2024 00:00Light Rain16°C2 mph, SW96%10000m1014hPa95%
25-Feb-2024 03:00Light Rain15°C2 mph, SW97%10000m1015hPa95%
25-Feb-2024 06:00Light Rain18°C2 mph, E90%10000m1016hPa86%
25-Feb-2024 09:00Light Rain23°C4 mph, SE74%10000m1014hPa68%
25-Feb-2024 12:00Light Rain23°C4 mph, E79%10000m1011hPa68%
25-Feb-2024 15:00Light Rain21°C2 mph, SE48%8206m1010hPa79%
25-Feb-2024 18:00Light Rain16°C2 mph, SW69%10000m1014hPa93%
25-Feb-2024 21:00Moderate Rain15°C2 mph, W42%10000m1015hPa96%
26-Feb-2024 00:00Light Rain14°C2 mph, W71%10000m1014hPa94%